KOGS Airport (Ogdensburg Intl) Information

FAA: OGS - ICAO: KOGS

KOGS Airport Location

State New York
County St Lawrence
City Ogdensburg
KOGS Airport is 2 miles southeast of Ogdensburg, NY.
Latitude 44-40-56.1000N
Longitude 075-27-47.7000W
Elevation 301ft

KOGS Airport METARs

METAR KOGS 181415Z AUTO 30014KT 10SM BKN055 M13/M19 A2988 RMK AO2
Altimeter 29.88"
Temperature -13.0°C (8.6°F)
Wind 300° at 14KT
Clouds broken at 5,500ft
Visibility 10.0mi
Time observed: 2022-01-18T14:15:00Z

KOGS Airport Details

Status Operational
Activation August 1947
Ownership Public
Usage Public
Chart MONTREAL
ATC on-site No
Beacon schedule sunset-sunrise
Beacon color clear green

KOGS Airport Contacts

Owner OGDENSBURG BRIDGE & PORT
Owner address BRIDGE PLAZA, OGDENSBURG, NY 13669
Owner phone 315-393-4080
Manager TORRELL MILLER
Manager address 2430 FDR DRIVE - EAST SERVICE RD, NEW YORK, NY 10010
Manager phone (201) 214-0969

KOGS Airport (Ogdensburg Intl) Radio Frequencies

KOGS (Airport) Radio Frequencies

UNICOM 122.8
Common traffic advisory frequency (CTAF) 122.8